Time;durP1;ratioP1;P1;durP2;ratioP2;P2;SDS_P1;SDS_P2;PMS_P1;PMS_P2;Temp;Humidity;BMP_temperature;BMP_pressure;BME280_temperature;BME280_humidity;BME280_pressure;Samples;Min_cycle;Max_cycle;Signal;HPM_P1;HPM_P2
2023/01/11 00:01:31;;;;;;;;;0.00;0.00;;;;;;;;5315414;27;8937;-73
2023/01/11 00:04:02;;;;;;;;;0.00;0.00;;;;;;;;5334618;27;9018;-73
2023/01/11 00:06:33;;;;;;;;;0.00;0.00;;;;;;;;5281521;27;8999;-73
2023/01/11 00:09:04;;;;;;;;;0.00;0.00;;;;;;;;5316130;27;9178;-77
2023/01/11 00:11:36;;;;;;;;;0.00;0.00;;;;;;;;5299015;27;9165;-76
2023/01/11 00:14:08;;;;;;;;;0.00;0.00;;;;;;;;5298596;27;10000;-76
2023/01/11 00:16:39;;;;;;;;;0.00;0.00;;;;;;;;5324018;27;9130;-77
2023/01/11 00:19:11;;;;;;;;;1.67;1.67;;;;;;;;5326739;27;9663;-77
2023/01/11 00:21:42;;;;;;;;;0.00;0.00;;;;;;;;5289935;27;9130;-77
2023/01/11 00:24:13;;;;;;;;;0.00;0.00;;;;;;;;5281798;27;9089;-73
2023/01/11 00:26:44;;;;;;;;;0.00;0.00;;;;;;;;5282023;27;9174;-74
2023/01/11 00:29:16;;;;;;;;;0.00;0.00;;;;;;;;5282752;27;9232;-73
2023/01/11 00:31:47;;;;;;;;;1.00;1.00;;;;;;;;5299342;27;9255;-73
2023/01/11 00:34:37;;;;;;;;;0.00;0.00;;;;;;;;5320301;27;9105;-73
2023/01/11 00:37:26;;;;;;;;;0.67;0.67;;;;;;;;5313527;27;9222;-73
2023/01/11 00:39:57;;;;;;;;;0.00;0.00;;;;;;;;5312372;27;9243;-74
2023/01/11 00:48:27;;;;;;;;;0.00;0.00;;;;;;;;5334850;27;9440;-73
2023/01/11 00:50:58;;;;;;;;;0.00;0.00;;;;;;;;5298615;27;9186;-74
2023/01/11 00:53:29;;;;;;;;;0.00;0.00;;;;;;;;5298247;27;9902;-73
2023/01/11 00:56:00;;;;;;;;;0.00;0.00;;;;;;;;5281826;27;9108;-78
2023/01/11 00:58:32;;;;;;;;;0.67;0.67;;;;;;;;5299418;27;9198;-77
2023/01/11 01:01:06;;;;;;;;;1.00;1.00;;;;;;;;5299584;27;9276;-77
2023/01/11 01:03:56;;;;;;;;;0.00;0.00;;;;;;;;5294951;27;9340;-73
2023/01/11 01:06:27;;;;;;;;;2.33;2.33;;;;;;;;5278876;27;9328;-75
2023/01/11 01:08:59;;;;;;;;;1.00;1.00;;;;;;;;5297597;27;9496;-74
2023/01/11 01:11:30;;;;;;;;;0.00;0.00;;;;;;;;5299291;27;9207;-74
2023/01/11 01:14:28;;;;;;;;;1.00;1.00;;;;;;;;5300838;27;9174;-74
2023/01/11 01:17:01;;;;;;;;;1.00;1.00;;;;;;;;5281249;27;9977;-74
2023/01/11 01:19:33;;;;;;;;;3.00;3.00;;;;;;;;5279995;27;9283;-74
2023/01/11 01:22:04;;;;;;;;;5.33;5.33;;;;;;;;5313848;27;9387;-74
2023/01/11 01:24:36;;;;;;;;;1.00;1.00;;;;;;;;5314899;27;9302;-74
2023/01/11 01:27:07;;;;;;;;;0.00;0.00;;;;;;;;5315422;27;9260;-74
2023/01/11 01:29:38;;;;;;;;;6.00;6.00;;;;;;;;5281252;27;9260;-74
2023/01/11 01:32:09;;;;;;;;;1.00;1.00;;;;;;;;5314223;27;9639;-74
2023/01/11 01:34:40;;;;;;;;;1.00;1.00;;;;;;;;5297173;27;9305;-73
2023/01/11 01:37:11;;;;;;;;;2.67;2.67;;;;;;;;5296405;27;9251;-73
2023/01/11 01:39:42;;;;;;;;;1.00;1.00;;;;;;;;5314350;27;8796;-74
2023/01/11 01:42:15;;;;;;;;;0.00;0.00;;;;;;;;5280542;27;9358;-73
2023/01/11 01:44:51;;;;;;;;;2.33;2.33;;;;;;;;5332760;27;9111;-75
2023/01/11 01:47:26;;;;;;;;;4.00;4.00;;;;;;;;5315021;27;9266;-75
2023/01/11 01:50:00;;;;;;;;;2.33;2.33;;;;;;;;5297421;27;9473;-76
2023/01/11 01:52:32;;;;;;;;;0.00;0.00;;;;;;;;5293222;27;9246;-73
2023/01/11 01:55:27;;;;;;;;;3.33;3.33;;;;;;;;5311403;27;9163;-73
2023/01/11 01:58:01;;;;;;;;;0.00;0.00;;;;;;;;5309895;27;9137;-73
2023/01/11 02:00:32;;;;;;;;;1.00;1.00;;;;;;;;5276067;27;8995;-73
2023/01/11 02:03:03;;;;;;;;;2.33;2.33;;;;;;;;5292702;27;9248;-73
2023/01/11 02:05:35;;;;;;;;;1.00;1.00;;;;;;;;5294769;27;9111;-73
2023/01/11 02:08:11;;;;;;;;;0.00;0.00;;;;;;;;5279232;27;9007;-75
2023/01/11 02:10:42;;;;;;;;;1.67;1.67;;;;;;;;5313197;27;8772;-74
2023/01/11 02:13:44;;;;;;;;;1.00;1.00;;;;;;;;5316383;27;8840;-74
2023/01/11 02:16:15;;;;;;;;;4.00;3.00;;;;;;;;5313332;27;8764;-74
2023/01/11 02:18:47;;;;;;;;;1.50;1.00;;;;;;;;5313303;27;8900;-74
2023/01/11 02:21:39;;;;;;;;;1.00;1.00;;;;;;;;5297359;27;8904;-75
2023/01/11 02:24:27;;;;;;;;;3.00;3.00;;;;;;;;5295948;27;8780;-76
2023/01/11 02:27:24;;;;;;;;;6.67;6.67;;;;;;;;5299007;27;8922;-75
2023/01/11 02:29:59;;;;;;;;;12.33;11.33;;;;;;;;5279415;27;9791;-75
2023/01/11 02:32:46;;;;;;;;;22.67;20.67;;;;;;;;5312801;27;9336;-75
2023/01/11 02:35:24;;;;;;;;;27.75;26.75;;;;;;;;5313061;27;9695;-75
2023/01/11 02:38:08;;;;;;;;;56.00;50.25;;;;;;;;5312091;27;10149;-74
2023/01/11 02:41:02;;;;;;;;;36.50;35.00;;;;;;;;5331362;27;11099;-74
2023/01/11 02:47:11;;;;;;;;;3.33;3.33;;;;;;;;5312987;27;9703;-75
2023/01/11 02:50:09;;;;;;;;;1.67;1.00;;;;;;;;5278968;27;8945;-75
2023/01/11 02:52:53;;;;;;;;;4.67;4.67;;;;;;;;5275474;27;9103;-74
2023/01/11 02:55:28;;;;;;;;;3.00;3.00;;;;;;;;5277116;27;9115;-75
2023/01/11 02:58:00;;;;;;;;;6.33;6.33;;;;;;;;5293847;27;9674;-75
2023/01/11 03:00:32;;;;;;;;;0.00;0.00;;;;;;;;5312589;27;8848;-75
2023/01/11 03:03:05;;;;;;;;;3.00;3.00;;;;;;;;5278408;27;8776;-75
2023/01/11 03:05:39;;;;;;;;;3.00;3.00;;;;;;;;5278590;27;8934;-75
2023/01/11 03:08:21;;;;;;;;;3.00;3.00;;;;;;;;5313275;27;8919;-75
2023/01/11 03:11:04;;;;;;;;;3.00;3.00;;;;;;;;5312881;27;8769;-76
2023/01/11 03:14:01;;;;;;;;;2.75;2.75;;;;;;;;5279051;27;9036;-78
2023/01/11 03:16:42;;;;;;;;;1.67;1.67;;;;;;;;5287198;28;8831;-77
2023/01/11 03:19:14;;;;;;;;;3.33;3.33;;;;;;;;5253435;28;9045;-75
2023/01/11 03:22:18;;;;;;;;;3.75;3.50;;;;;;;;5255892;28;9103;-75
2023/01/11 03:25:14;;;;;;;;;1.50;1.50;;;;;;;;5273098;28;8781;-76
2023/01/11 03:27:51;;;;;;;;;1.50;1.00;;;;;;;;5236937;28;8758;-75
2023/01/11 03:30:41;;;;;;;;;2.33;1.67;;;;;;;;5253341;28;9501;-76
2023/01/11 03:33:18;;;;;;;;;5.50;5.50;;;;;;;;5298584;27;8918;-74
2023/01/11 03:35:53;;;;;;;;;4.50;4.50;;;;;;;;5291572;27;8805;-75
2023/01/11 03:38:36;;;;;;;;;6.25;6.25;;;;;;;;5297503;27;8781;-77
2023/01/11 03:41:15;;;;;;;;;3.33;3.33;;;;;;;;5291176;27;9502;-77
2023/01/11 03:43:49;;;;;;;;;3.00;3.00;;;;;;;;5282524;27;9008;-77
2023/01/11 03:46:26;;;;;;;;;5.75;5.50;;;;;;;;5316228;27;8776;-77
2023/01/11 03:49:01;;;;;;;;;3.50;3.50;;;;;;;;5288616;27;8793;-77
2023/01/11 03:51:35;;;;;;;;;3.00;3.00;;;;;;;;5312821;27;8781;-75
2023/01/11 03:54:07;;;;;;;;;1.50;1.50;;;;;;;;5281315;27;8770;-76
2023/01/11 03:56:41;;;;;;;;;4.50;3.50;;;;;;;;5278329;27;8846;-74
2023/01/11 03:59:13;;;;;;;;;4.00;4.00;;;;;;;;5277796;27;9573;-75
2023/01/11 04:01:45;;;;;;;;;1.00;1.00;;;;;;;;5294486;27;8788;-75
2023/01/11 04:04:16;;;;;;;;;4.00;4.00;;;;;;;;5299137;27;8885;-75
2023/01/11 04:06:47;;;;;;;;;1.50;1.50;;;;;;;;5316184;27;10830;-76
2023/01/11 04:09:18;;;;;;;;;1.00;1.00;;;;;;;;5298736;27;8784;-75
2023/01/11 04:11:49;;;;;;;;;1.00;1.00;;;;;;;;5315198;27;8947;-75
2023/01/11 04:14:20;;;;;;;;;0.00;0.00;;;;;;;;5315920;27;9636;-75
2023/01/11 04:16:51;;;;;;;;;0.00;0.00;;;;;;;;5281447;27;9498;-70
2023/01/11 04:19:22;;;;;;;;;29.50;27.25;;;;;;;;5315533;27;8883;-73
2023/01/11 04:21:53;;;;;;;;;3.67;3.67;;;;;;;;5334076;27;8883;-74
2023/01/11 04:24:43;;;;;;;;;0.00;0.00;;;;;;;;5318120;27;11342;-74
2023/01/11 04:27:14;;;;;;;;;1.00;1.00;;;;;;;;5281374;27;9601;-74
2023/01/11 04:29:45;;;;;;;;;0.00;0.00;;;;;;;;5298352;27;8813;-72
2023/01/11 04:32:17;;;;;;;;;0.75;0.75;;;;;;;;5315454;27;8789;-74
2023/01/11 04:34:49;;;;;;;;;0.00;0.00;;;;;;;;5316041;27;8780;-73
2023/01/11 04:37:20;;;;;;;;;0.25;0.25;;;;;;;;5281590;27;9604;-72
2023/01/11 04:39:51;;;;;;;;;0.00;0.00;;;;;;;;5280994;27;8800;-73
2023/01/11 04:42:23;;;;;;;;;0.00;0.00;;;;;;;;5297934;27;8857;-74
2023/01/11 04:44:55;;;;;;;;;0.00;0.00;;;;;;;;5314795;27;11396;-73
2023/01/11 04:47:26;;;;;;;;;0.00;0.00;;;;;;;;5297851;27;8769;-74
2023/01/11 04:49:57;;;;;;;;;0.33;0.33;;;;;;;;5314787;27;8778;-75
2023/01/11 04:52:28;;;;;;;;;1.00;1.00;;;;;;;;5280813;27;11349;-75
2023/01/11 04:55:00;;;;;;;;;2.50;2.50;;;;;;;;5297876;27;8793;-74
2023/01/11 04:57:34;;;;;;;;;3.75;3.50;;;;;;;;5297659;27;8769;-75
2023/01/11 05:00:09;;;;;;;;;4.00;4.00;;;;;;;;5315272;27;8792;-73
2023/01/11 05:02:59;;;;;;;;;0.00;0.00;;;;;;;;5317632;27;8788;-72
2023/01/11 05:05:31;;;;;;;;;1.00;1.00;;;;;;;;5297440;27;8766;-72
2023/01/11 05:08:02;;;;;;;;;0.00;0.00;;;;;;;;5333680;27;8761;-75
2023/01/11 05:10:33;;;;;;;;;0.00;0.00;;;;;;;;5261727;28;8784;-73
2023/01/11 05:13:42;;;;;;;;;3.00;3.00;;;;;;;;5258032;28;8770;-74
2023/01/11 05:16:13;;;;;;;;;0.75;0.75;;;;;;;;5239491;28;8811;-76
2023/01/11 05:18:46;;;;;;;;;0.00;0.00;;;;;;;;5271961;28;8889;-74
2023/01/11 05:21:19;;;;;;;;;2.50;2.50;;;;;;;;5255203;28;8781;-75
2023/01/11 05:23:51;;;;;;;;;3.00;1.00;;;;;;;;5254983;28;8798;-73
2023/01/11 05:26:25;;;;;;;;;0.00;0.00;;;;;;;;5238368;28;8770;-79
2023/01/11 05:28:58;;;;;;;;;1.00;1.00;;;;;;;;5255726;28;8769;-76
2023/01/11 05:31:31;;;;;;;;;0.00;0.00;;;;;;;;5240045;28;8812;-84
2023/01/11 05:38:27;;;;;;;;;1.00;1.00;;;;;;;;5290325;28;8766;-83
2023/01/11 05:41:00;;;;;;;;;0.25;0.25;;;;;;;;5251313;27;8810;-82
2023/01/11 05:43:31;;;;;;;;;0.00;0.00;;;;;;;;5267782;27;8938;-82
2023/01/11 05:46:03;;;;;;;;;0.25;0.25;;;;;;;;5282780;27;8778;-83
2023/01/11 05:48:34;;;;;;;;;0.00;0.00;;;;;;;;5269127;27;8762;-78
2023/01/11 05:51:06;;;;;;;;;0.00;0.00;;;;;;;;5285859;27;8916;-82
2023/01/11 05:53:37;;;;;;;;;3.00;3.00;;;;;;;;5286825;27;8759;-86
2023/01/11 05:56:09;;;;;;;;;1.00;0.25;;;;;;;;5281858;27;8759;-74
2023/01/11 05:58:40;;;;;;;;;1.50;1.00;;;;;;;;5277855;27;8834;-76
2023/01/11 06:05:37;;;;;;;;;0.00;0.00;;;;;;;;5311673;27;8711;-70
2023/01/11 06:08:27;;;;;;;;;5.50;5.00;;;;;;;;5292940;27;8778;-75
2023/01/11 06:11:18;;;;;;;;;1.00;1.00;;;;;;;;5279300;27;8909;-80
2023/01/11 06:13:50;;;;;;;;;5.00;4.00;;;;;;;;5276189;27;8853;-77
2023/01/11 06:16:22;;;;;;;;;5.00;5.00;;;;;;;;5276668;27;8816;-79
2023/01/11 06:18:53;;;;;;;;;2.50;2.50;;;;;;;;5281398;27;8813;-74
2023/01/11 06:21:25;;;;;;;;;2.50;2.50;;;;;;;;5286548;27;8774;-75
2023/01/11 06:23:57;;;;;;;;;1.50;1.50;;;;;;;;5303422;27;8786;-76
2023/01/11 06:26:29;;;;;;;;;1.50;1.50;;;;;;;;5280293;27;8788;-76
2023/01/11 06:29:00;;;;;;;;;80.00;65.75;;;;;;;;5275755;27;8798;-74
2023/01/11 06:31:32;;;;;;;;;1.00;1.00;;;;;;;;5294374;27;9632;-78
2023/01/11 06:34:04;;;;;;;;;1.50;1.50;;;;;;;;5275069;27;8790;-75
2023/01/11 06:36:36;;;;;;;;;0.00;0.00;;;;;;;;5257949;27;9485;-78
2023/01/11 06:39:09;;;;;;;;;1.00;1.00;;;;;;;;5309862;27;8817;-76
2023/01/11 06:41:40;;;;;;;;;1.00;1.00;;;;;;;;5291532;27;8879;-75
2023/01/11 06:44:31;;;;;;;;;0.00;0.00;;;;;;;;5277331;27;8766;-77
2023/01/11 06:47:03;;;;;;;;;3.00;3.00;;;;;;;;5292561;27;8778;-76
2023/01/11 06:49:34;;;;;;;;;8.50;7.75;;;;;;;;5291587;27;8758;-77
2023/01/11 06:52:06;;;;;;;;;3.00;3.00;;;;;;;;5274721;27;8843;-78
2023/01/11 06:59:01;;;;;;;;;6.75;6.75;;;;;;;;5310933;27;9456;-76
2023/01/11 07:01:33;;;;;;;;;5.50;5.50;;;;;;;;5274225;27;8851;-77
2023/01/11 07:04:04;;;;;;;;;0.00;0.00;;;;;;;;5274804;27;8770;-81
2023/01/11 07:06:35;;;;;;;;;3.25;3.25;;;;;;;;5293246;27;8778;-74
2023/01/11 07:09:07;;;;;;;;;1.00;1.00;;;;;;;;5295721;27;8826;-76
2023/01/11 07:11:39;;;;;;;;;0.75;0.75;;;;;;;;5278861;27;8786;-83
2023/01/11 07:14:13;;;;;;;;;8.00;8.00;;;;;;;;5296304;27;8802;-78
2023/01/11 07:16:48;;;;;;;;;19.25;18.25;;;;;;;;5262241;27;8884;-80
2023/01/11 07:19:19;;;;;;;;;13.50;11.00;;;;;;;;5312585;27;8814;-73
2023/01/11 07:21:51;;;;;;;;;3.00;2.00;;;;;;;;5316005;27;8802;-85
2023/01/11 07:24:24;;;;;;;;;3.00;2.50;;;;;;;;5283019;27;9477;-86
2023/01/11 07:26:58;;;;;;;;;8.00;8.00;;;;;;;;5267518;27;8790;-84
2023/01/11 07:29:30;;;;;;;;;3.25;3.25;;;;;;;;5282705;27;8801;-84
2023/01/11 07:32:03;;;;;;;;;6.40;6.40;;;;;;;;5283331;27;8773;-86
2023/01/11 07:34:35;;;;;;;;;9.40;9.40;;;;;;;;5285317;27;8775;-85
2023/01/11 07:37:08;;;;;;;;;4.40;4.40;;;;;;;;5282371;27;8770;-84
2023/01/11 07:39:39;;;;;;;;;0.00;0.00;;;;;;;;5279241;27;8829;-84
2023/01/11 07:45:02;;;;;;;;;6.00;6.00;;;;;;;;5281853;27;8917;-78
2023/01/11 07:51:58;;;;;;;;;4.40;4.40;;;;;;;;5314212;27;8844;-78
2023/01/11 07:58:53;;;;;;;;;0.60;0.60;;;;;;;;5314769;27;8773;-80
2023/01/11 08:05:50;;;;;;;;;6.20;6.00;;;;;;;;5318854;27;8694;-85
2023/01/11 08:08:21;;;;;;;;;1.00;0.80;;;;;;;;5300643;27;8798;-85
2023/01/11 08:16:31;;;;;;;;;5.60;4.40;;;;;;;;5302148;27;8818;-81
2023/01/11 08:19:03;;;;;;;;;1.00;1.00;;;;;;;;5283191;27;8843;-79
2023/01/11 08:21:35;;;;;;;;;3.00;3.00;;;;;;;;5300919;27;8808;-83
2023/01/11 08:24:06;;;;;;;;;4.80;4.80;;;;;;;;5285494;27;8855;-85
2023/01/11 08:26:37;;;;;;;;;3.00;3.00;;;;;;;;5263882;27;8778;-75
2023/01/11 08:29:08;;;;;;;;;3.00;3.00;;;;;;;;5263278;27;8778;-83
2023/01/11 08:31:42;;;;;;;;;5.20;5.20;;;;;;;;5279791;27;9227;-78
2023/01/11 08:34:13;;;;;;;;;3.40;1.80;;;;;;;;5277586;27;8786;-78
2023/01/11 08:36:44;;;;;;;;;4.00;4.00;;;;;;;;5261912;27;8775;-81
2023/01/11 08:39:34;;;;;;;;;4.80;4.60;;;;;;;;5280358;27;8797;-81
2023/01/11 08:42:05;;;;;;;;;6.00;6.00;;;;;;;;5261784;27;8898;-83
2023/01/11 08:44:55;;;;;;;;;7.80;7.80;;;;;;;;5284036;27;9472;-84
2023/01/11 08:47:26;;;;;;;;;3.40;3.40;;;;;;;;5299774;27;9516;-85
2023/01/11 08:49:57;;;;;;;;;3.75;3.75;;;;;;;;5278726;27;8770;-78
2023/01/11 08:52:28;;;;;;;;;4.40;4.40;;;;;;;;5277726;27;10467;-83
2023/01/11 08:54:59;;;;;;;;;3.40;3.00;;;;;;;;5277321;27;9468;-79
2023/01/11 08:57:48;;;;;;;;;1.40;1.40;;;;;;;;5279634;27;8888;-78
2023/01/11 09:00:19;;;;;;;;;5.60;5.60;;;;;;;;5260009;27;8773;-79
2023/01/11 09:02:50;;;;;;;;;2.50;2.50;;;;;;;;5276942;27;8802;-79
2023/01/11 09:05:23;;;;;;;;;8.40;6.20;;;;;;;;5259438;27;10384;-79
2023/01/11 09:07:54;;;;;;;;;2.60;2.60;;;;;;;;5259829;27;8763;-78
2023/01/11 09:10:26;;;;;;;;;4.00;4.00;;;;;;;;5259911;27;8759;-80
2023/01/11 09:12:57;;;;;;;;;6.67;6.67;;;;;;;;5276506;27;8774;-79
2023/01/11 09:15:28;;;;;;;;;1.00;1.00;;;;;;;;5276207;27;11466;-82
2023/01/11 09:17:58;;;;;;;;;3.00;3.00;;;;;;;;5293236;27;8770;-78
2023/01/11 09:20:29;;;;;;;;;2.00;2.00;;;;;;;;5293188;27;8774;-77
2023/01/11 09:23:19;;;;;;;;;3.00;1.00;;;;;;;;5293061;27;11471;-70
2023/01/11 09:26:08;;;;;;;;;1.40;1.40;;;;;;;;5279647;27;8870;-80
2023/01/11 09:28:42;;;;;;;;;33.50;31.25;;;;;;;;5298204;27;8884;-79
2023/01/11 09:35:41;;;;;;;;;1.40;1.40;;;;;;;;5334528;27;8732;-80
2023/01/11 09:38:12;;;;;;;;;3.00;3.00;;;;;;;;5280183;27;8898;-78
2023/01/11 09:40:44;;;;;;;;;0.00;0.00;;;;;;;;5275664;27;8799;-79
2023/01/11 09:43:17;;;;;;;;;2.60;2.60;;;;;;;;5276153;27;8913;-79
2023/01/11 09:50:24;;;;;;;;;3.00;3.00;;;;;;;;5310620;27;8869;-74
2023/01/11 09:52:57;;;;;;;;;7.40;7.40;;;;;;;;5276319;27;8850;-76
2023/01/11 09:55:32;;;;;;;;;1.00;1.00;;;;;;;;5259507;27;8782;-76
2023/01/11 09:58:21;;;;;;;;;1.00;1.00;;;;;;;;5258676;27;8782;-78
2023/01/11 10:01:05;;;;;;;;;0.00;0.00;;;;;;;;5275982;27;8867;-77
2023/01/11 10:04:16;;;;;;;;;1.00;1.00;;;;;;;;5278642;27;8790;-83
2023/01/11 10:06:59;;;;;;;;;0.80;0.80;;;;;;;;5258930;27;8904;-82
2023/01/11 10:09:40;;;;;;;;;3.20;3.20;;;;;;;;5259085;27;8833;-81
2023/01/11 10:12:23;;;;;;;;;3.00;3.00;;;;;;;;5259703;27;8851;-78
2023/01/11 10:15:12;;;;;;;;;2.60;2.60;;;;;;;;5261831;27;8790;-81
2023/01/11 10:18:21;;;;;;;;;3.60;3.60;;;;;;;;5278619;27;9532;-85
2023/01/11 10:20:54;;;;;;;;;3.00;3.00;;;;;;;;5259277;27;8758;-80
2023/01/11 10:23:31;;;;;;;;;0.00;0.00;;;;;;;;5259010;27;8778;-79
2023/01/11 10:26:28;;;;;;;;;1.00;1.00;;;;;;;;5277912;27;8778;-79
2023/01/11 10:35:11;;;;;;;;;3.80;3.80;;;;;;;;5275521;27;9505;-83
2023/01/11 10:41:24;;;;;;;;;4.00;4.00;;;;;;;;5278042;27;8819;-79
2023/01/11 10:44:08;;;;;;;;;0.20;0.20;;;;;;;;5308859;27;9640;-78
2023/01/11 10:46:43;;;;;;;;;78.50;59.25;;;;;;;;5291715;27;8755;-78
2023/01/11 10:49:24;;;;;;;;;0.40;0.40;;;;;;;;5292466;27;8791;-79
2023/01/11 10:52:01;;;;;;;;;1.00;1.00;;;;;;;;5292220;27;8763;-79
2023/01/11 10:54:35;;;;;;;;;1.00;1.00;;;;;;;;5276320;27;8783;-79
2023/01/11 10:57:12;;;;;;;;;7.00;6.60;;;;;;;;5274868;27;8824;-79
2023/01/11 10:59:55;;;;;;;;;3.60;3.60;;;;;;;;5308943;27;8933;-79
2023/01/11 11:02:25;;;;;;;;;1.80;1.80;;;;;;;;5308818;27;9259;-79
2023/01/11 11:04:56;;;;;;;;;0.40;0.40;;;;;;;;5275086;27;8774;-80
2023/01/11 11:07:46;;;;;;;;;1.00;1.00;;;;;;;;5274738;27;8798;-77
2023/01/11 11:10:24;;;;;;;;;0.00;0.00;;;;;;;;5275087;27;8782;-77
2023/01/11 11:12:55;;;;;;;;;3.00;3.00;;;;;;;;5292305;27;8787;-77
2023/01/11 11:15:36;;;;;;;;;0.00;0.00;;;;;;;;5274761;27;8797;-79
2023/01/11 11:18:08;;;;;;;;;27.20;25.40;;;;;;;;5274763;27;11442;-79
2023/01/11 11:20:39;;;;;;;;;3.80;3.80;;;;;;;;5291347;27;8767;-80
2023/01/11 11:23:15;;;;;;;;;10.00;9.40;;;;;;;;5275272;27;8775;-80
2023/01/11 11:25:54;;;;;;;;;5.20;4.00;;;;;;;;5274769;27;8771;-80
2023/01/11 11:28:27;;;;;;;;;2.20;2.20;;;;;;;;5274401;27;8795;-80
2023/01/11 11:31:16;;;;;;;;;1.40;1.00;;;;;;;;5293744;27;8779;-79
2023/01/11 11:33:47;;;;;;;;;0.80;0.80;;;;;;;;5291412;27;8798;-79
2023/01/11 11:36:41;;;;;;;;;3.00;3.00;;;;;;;;5293964;27;8829;-79
2023/01/11 11:39:20;;;;;;;;;1.00;1.00;;;;;;;;5275038;27;9461;-80
2023/01/11 11:41:51;;;;;;;;;1.00;1.00;;;;;;;;5291860;27;8899;-80
2023/01/11 11:44:24;;;;;;;;;1.00;1.00;;;;;;;;5274855;27;8759;-80
2023/01/11 11:51:20;;;;;;;;;3.00;3.00;;;;;;;;5310251;27;8743;-80
2023/01/11 11:53:54;;;;;;;;;4.00;4.00;;;;;;;;5277635;27;8792;-79
2023/01/11 11:56:28;;;;;;;;;1.40;1.40;;;;;;;;5293869;27;8783;-79
2023/01/11 11:59:05;;;;;;;;;0.00;0.00;;;;;;;;5277709;27;8791;-78
2023/01/11 12:01:45;;;;;;;;;7.40;7.40;;;;;;;;5295660;27;8775;-80
2023/01/11 12:04:21;;;;;;;;;75.50;57.25;;;;;;;;5278001;27;8967;-79
2023/01/11 12:07:04;;;;;;;;;4.80;4.80;;;;;;;;5295058;27;8802;-84
2023/01/11 12:09:35;;;;;;;;;1.00;1.00;;;;;;;;5279848;27;8811;-84
2023/01/11 12:12:13;;;;;;;;;0.20;0.20;;;;;;;;5278931;27;8772;-81
2023/01/11 12:15:04;;;;;;;;;0.00;0.00;;;;;;;;5278720;27;8759;-81
2023/01/11 12:17:36;;;;;;;;;1.00;1.00;;;;;;;;5278048;27;8763;-77
2023/01/11 12:20:36;;;;;;;;;24.50;20.00;;;;;;;;5277748;27;8775;-78
2023/01/11 12:23:20;;;;;;;;;1.00;1.00;;;;;;;;5278144;27;8799;-80
2023/01/11 12:26:10;;;;;;;;;1.00;1.00;;;;;;;;5297211;27;8863;-79
2023/01/11 12:29:00;;;;;;;;;1.00;1.00;;;;;;;;5277206;27;8842;-79
2023/01/11 12:31:34;;;;;;;;;1.00;1.00;;;;;;;;5277963;27;9558;-77
2023/01/11 12:34:15;;;;;;;;;0.80;0.80;;;;;;;;5278156;27;8783;-77
2023/01/11 12:37:07;;;;;;;;;1.00;1.00;;;;;;;;5303769;27;8764;-80
2023/01/11 12:39:38;;;;;;;;;1.00;1.00;;;;;;;;5289212;27;8763;-78
2023/01/11 12:42:12;;;;;;;;;1.40;1.40;;;;;;;;5289361;27;8860;-81
2023/01/11 12:44:49;;;;;;;;;2.60;0.80;;;;;;;;5285246;27;8779;-86
2023/01/11 12:47:43;;;;;;;;;32.50;30.50;;;;;;;;5302752;27;8820;-86
2023/01/11 12:50:23;;;;;;;;;9.60;9.60;;;;;;;;5278043;27;8813;-80
2023/01/11 12:53:00;;;;;;;;;3.80;3.80;;;;;;;;5312802;27;9595;-79
2023/01/11 12:55:47;;;;;;;;;2.60;2.60;;;;;;;;5277380;27;8799;-80
2023/01/11 12:58:27;;;;;;;;;1.00;0.20;;;;;;;;5278383;27;8919;-83
2023/01/11 13:01:11;;;;;;;;;3.00;3.00;;;;;;;;5277303;27;8851;-76
2023/01/11 13:04:13;;;;;;;;;18.00;14.50;;;;;;;;5295794;27;8867;-78
2023/01/11 13:06:55;;;;;;;;;4.40;4.00;;;;;;;;5296663;27;8795;-85
2023/01/11 13:09:33;;;;;;;;;2.60;2.60;;;;;;;;5281496;27;8807;-81
2023/01/11 13:12:20;;;;;;;;;2.60;2.60;;;;;;;;5298460;27;8808;-83
2023/01/11 13:15:15;;;;;;;;;3.60;3.60;;;;;;;;5290051;27;8787;-80
2023/01/11 13:17:52;;;;;;;;;2.60;2.60;;;;;;;;5306402;27;8763;-80
2023/01/11 13:20:23;;;;;;;;;3.00;3.00;;;;;;;;5303175;27;8783;-85
2023/01/11 13:22:58;;;;;;;;;2.60;2.60;;;;;;;;5283050;27;8787;-81
2023/01/11 13:25:32;;;;;;;;;2.20;1.40;;;;;;;;5277068;27;8775;-80
2023/01/11 13:32:48;;;;;;;;;3.80;3.80;;;;;;;;5312409;27;8732;-82
2023/01/11 13:35:51;;;;;;;;;1.00;1.00;;;;;;;;5297497;27;8790;-82
2023/01/11 13:38:25;;;;;;;;;1.00;1.00;;;;;;;;5277459;27;8987;-83
2023/01/11 13:40:59;;;;;;;;;3.80;3.80;;;;;;;;5277731;27;8811;-80
2023/01/11 13:43:30;;;;;;;;;11.60;11.60;;;;;;;;5276277;27;8795;-79
2023/01/11 13:46:10;;;;;;;;;21.60;19.80;;;;;;;;5294619;27;8795;-83
2023/01/11 13:48:58;;;;;;;;;2.20;2.20;;;;;;;;5293944;27;8856;-84
2023/01/11 13:51:47;;;;;;;;;2.20;0.80;;;;;;;;5312915;27;8783;-82
2023/01/11 13:54:23;;;;;;;;;3.00;3.00;;;;;;;;5279869;27;8759;-85
2023/01/11 13:57:00;;;;;;;;;2.00;2.00;;;;;;;;5280254;27;8782;-81
2023/01/11 13:59:35;;;;;;;;;4.40;4.00;;;;;;;;5277343;27;8787;-80
2023/01/11 14:02:26;;;;;;;;;1.00;1.00;;;;;;;;5293716;27;8790;-74
2023/01/11 14:04:59;;;;;;;;;4.00;3.40;;;;;;;;5275993;27;8790;-79
2023/01/11 14:07:48;;;;;;;;;1.00;1.00;;;;;;;;5276625;27;8895;-75
2023/01/11 14:10:43;;;;;;;;;4.00;4.00;;;;;;;;5297761;27;8803;-78
2023/01/11 14:16:28;;;;;;;;;1.40;1.40;;;;;;;;5291500;27;8778;-82
2023/01/11 14:19:20;;;;;;;;;1.40;1.40;;;;;;;;5293149;27;8783;-78
2023/01/11 14:22:10;;;;;;;;;1.00;1.00;;;;;;;;5291850;27;8795;-77
2023/01/11 14:24:49;;;;;;;;;2.60;2.60;;;;;;;;5274996;27;8784;-81
2023/01/11 14:27:20;;;;;;;;;38.25;37.00;;;;;;;;5275110;27;8783;-78
2023/01/11 14:29:57;;;;;;;;;10.60;10.60;;;;;;;;5292196;27;8819;-81
2023/01/11 14:32:35;;;;;;;;;9.00;7.80;;;;;;;;5275302;27;8759;-78
2023/01/11 14:35:24;;;;;;;;;4.80;3.60;;;;;;;;5292134;27;8763;-80
2023/01/11 14:38:02;;;;;;;;;5.20;4.40;;;;;;;;5275665;27;8779;-78
2023/01/11 14:41:04;;;;;;;;;9.20;7.80;;;;;;;;5294557;27;8961;-84
2023/01/11 14:43:55;;;;;;;;;8.60;8.60;;;;;;;;5275412;27;8840;-80
2023/01/11 14:46:45;;;;;;;;;3.00;3.00;;;;;;;;5294657;27;8771;-82
2023/01/11 14:49:16;;;;;;;;;5.40;5.40;;;;;;;;5282091;27;8821;-84
2023/01/11 14:52:00;;;;;;;;;6.40;5.60;;;;;;;;5295362;27;8809;-76
2023/01/11 14:54:31;;;;;;;;;74.00;58.25;;;;;;;;5275804;27;8811;-78
2023/01/11 14:57:02;;;;;;;;;7.00;7.00;;;;;;;;5291651;27;8855;-82
2023/01/11 14:59:35;;;;;;;;;18.60;15.00;;;;;;;;5275502;27;8806;-82
2023/01/11 15:02:12;;;;;;;;;8.20;8.00;;;;;;;;5276041;27;8807;-79
2023/01/11 15:05:03;;;;;;;;;2.80;2.80;;;;;;;;5315152;27;8799;-84
2023/01/11 15:12:10;;;;;;;;;2.80;2.80;;;;;;;;5310564;27;8747;-79
2023/01/11 15:15:07;;;;;;;;;0.60;0.60;;;;;;;;5275150;27;8832;-79
2023/01/11 15:22:03;;;;;;;;;2.60;2.60;;;;;;;;5310137;27;9422;-82
2023/01/11 15:24:42;;;;;;;;;7.00;7.00;;;;;;;;5274921;27;8937;-86
2023/01/11 15:27:36;;;;;;;;;7.00;7.00;;;;;;;;5296298;27;8941;-79
2023/01/11 15:30:28;;;;;;;;;9.20;9.20;;;;;;;;5279349;27;8972;-79
2023/01/11 15:33:18;;;;;;;;;8.60;8.60;;;;;;;;5279002;27;8787;-81
2023/01/11 15:35:56;;;;;;;;;64.50;49.50;;;;;;;;5295231;27;8775;-75
2023/01/11 15:38:36;;;;;;;;;12.40;11.80;;;;;;;;5296603;27;8797;-82
2023/01/11 15:44:15;;;;;;;;;11.20;10.40;;;;;;;;5296281;27;8775;-79
2023/01/11 15:46:55;;;;;;;;;4.00;3.20;;;;;;;;5315117;27;8767;-76
2023/01/11 15:50:05;;;;;;;;;0.20;0.20;;;;;;;;5299291;27;8806;-79
2023/01/11 15:52:54;;;;;;;;;8.60;8.60;;;;;;;;5284375;27;8755;-76
2023/01/11 15:55:47;;;;;;;;;4.00;3.60;;;;;;;;5319007;27;8772;-80
2023/01/11 15:58:30;;;;;;;;;3.80;3.80;;;;;;;;5300175;27;8767;-80
2023/01/11 16:01:04;;;;;;;;;1.80;1.80;;;;;;;;5284752;27;9474;-81
2023/01/11 16:03:58;;;;;;;;;1.40;1.00;;;;;;;;5283677;27;8771;-80
2023/01/11 16:06:40;;;;;;;;;6.40;6.40;;;;;;;;5269061;27;8755;-81
2023/01/11 16:09:36;;;;;;;;;3.60;3.60;;;;;;;;5299588;27;8807;-82
2023/01/11 16:12:26;;;;;;;;;1.80;1.80;;;;;;;;5279426;27;8803;-82
2023/01/11 16:15:00;;;;;;;;;2.80;2.60;;;;;;;;5282337;27;8764;-82
2023/01/11 16:17:38;;;;;;;;;1.80;1.80;;;;;;;;5277637;27;8751;-84
2023/01/11 16:20:23;;;;;;;;;5.20;5.20;;;;;;;;5295439;27;8763;-82
2023/01/11 16:23:03;;;;;;;;;1.00;1.00;;;;;;;;5277694;27;8918;-80
2023/01/11 16:25:37;;;;;;;;;2.60;2.60;;;;;;;;5294964;27;9556;-80
2023/01/11 16:28:12;;;;;;;;;1.00;1.00;;;;;;;;5294976;27;8783;-79
2023/01/11 16:30:45;;;;;;;;;1.00;1.00;;;;;;;;5277756;27;8767;-76
2023/01/11 16:33:35;;;;;;;;;0.00;0.00;;;;;;;;5293937;27;8791;-78
2023/01/11 16:36:06;;;;;;;;;3.00;3.00;;;;;;;;5277920;27;8783;-76
2023/01/11 16:38:42;;;;;;;;;4.00;4.00;;;;;;;;5277664;27;8763;-84
2023/01/11 16:41:14;;;;;;;;;3.20;3.20;;;;;;;;5278218;27;8817;-80
2023/01/11 16:43:57;;;;;;;;;3.20;3.20;;;;;;;;5295029;27;8791;-84
2023/01/11 16:46:47;;;;;;;;;2.60;2.60;;;;;;;;5277043;27;8779;-77
2023/01/11 16:49:39;;;;;;;;;2.20;2.20;;;;;;;;5297453;27;8807;-83
2023/01/11 16:52:33;;;;;;;;;5.60;5.60;;;;;;;;5296933;27;8783;-83
2023/01/11 16:55:15;;;;;;;;;1.00;1.00;;;;;;;;5295519;27;9572;-81
2023/01/11 16:57:54;;;;;;;;;1.00;1.00;;;;;;;;5295601;27;8894;-79
2023/01/11 17:00:31;;;;;;;;;2.60;2.60;;;;;;;;5277707;27;8779;-84
2023/01/11 17:03:19;;;;;;;;;2.60;1.00;;;;;;;;5295007;27;8786;-80
2023/01/11 17:05:53;;;;;;;;;3.00;3.00;;;;;;;;5293717;27;9553;-79
2023/01/11 17:08:29;;;;;;;;;3.20;3.20;;;;;;;;5276655;27;8838;-78
2023/01/11 17:11:18;;;;;;;;;3.20;3.20;;;;;;;;5276481;27;8807;-77
2023/01/11 17:13:52;;;;;;;;;1.00;1.00;;;;;;;;5294346;27;8775;-79
2023/01/11 17:16:34;;;;;;;;;3.00;3.00;;;;;;;;5278896;27;8857;-85
2023/01/11 17:19:27;;;;;;;;;4.00;4.00;;;;;;;;5285419;27;9512;-81
2023/01/11 17:22:14;;;;;;;;;6.80;6.00;;;;;;;;5277904;27;8788;-80
2023/01/11 17:24:57;;;;;;;;;18.60;17.20;;;;;;;;5279518;27;8840;-80
2023/01/11 17:27:31;;;;;;;;;3.00;3.00;;;;;;;;5294936;27;8771;-76